Time;durP1;ratioP1;P1;durP2;ratioP2;P2;SDS_P1;SDS_P2;PMS_P1;PMS_P2;Temp;Humidity;BMP_temperature;BMP_pressure;BME280_temperature;BME280_humidity;BME280_pressure;Samples;Min_cycle;Max_cycle;Signal;HPM_P1;HPM_P2
2022/11/02 00:01:07;;;;;;;5.57;2.10;;;13.00;99.90;;;;;;6069710;23;20010;-83
2022/11/02 00:03:33;;;;;;;7.53;3.08;;;;;;;;;;6045597;23;20022;-83
2022/11/02 00:05:59;;;;;;;5.68;2.33;;;;;;;;;;6045863;23;20073;-83
2022/11/02 00:08:25;;;;;;;4.22;1.42;;;;;;;;;;6045843;23;20424;-82
2022/11/02 00:10:51;;;;;;;7.10;2.05;;;;;;;;;;6069243;23;20022;-83
2022/11/02 00:13:17;;;;;;;9.52;1.80;;;;;;;;;;6069553;23;20030;-82
2022/11/02 00:15:43;;;;;;;7.13;2.20;;;;;;;;;;6046007;23;20034;-83
2022/11/02 00:18:11;;;;;;;9.32;2.22;;;13.10;99.90;;;;;;6069691;23;20027;-83
2022/11/02 00:20:38;;;;;;;4.75;2.00;;;;;;;;;;6069549;23;20085;-83
2022/11/02 00:23:06;;;;;;;7.47;2.17;;;;;;;;;;6069530;23;20022;-84
2022/11/02 00:25:32;;;;;;;6.32;2.25;;;;;;;;;;6070095;23;20022;-84
2022/11/02 00:27:58;;;;;;;4.05;1.83;;;;;;;;;;6045855;23;20025;-82
2022/11/02 00:30:24;;;;;;;6.20;1.77;;;;;;;;;;6046214;23;20018;-83
2022/11/02 00:32:50;;;;;;;3.17;1.60;;;;;;;;;;6069559;23;20022;-83
2022/11/02 00:35:16;;;;;;;3.80;1.60;;;;;;;;;;6045724;23;20014;-83
2022/11/02 00:37:42;;;;;;;7.25;1.52;;;;;;;;;;6069631;23;20028;-82
2022/11/02 00:40:09;;;;;;;3.95;1.27;;;;;;;;;;6047141;23;20019;-83
2022/11/02 00:42:35;;;;;;;12.60;1.88;;;;;;;;;;6047092;23;20069;-84
2022/11/02 00:45:01;;;;;;;5.85;1.92;;;;;;;;;;6047566;23;20030;-85
2022/11/02 00:47:27;;;;;;;3.38;1.65;;;;;;;;;;6047460;23;20054;-82
2022/11/02 00:49:53;;;;;;;3.58;1.25;;;;;;;;;;6047609;23;20086;-85
2022/11/02 00:52:19;;;;;;;8.25;1.70;;;;;;;;;;6071345;23;20022;-84
2022/11/02 00:54:45;;;;;;;6.85;1.88;;;;;;;;;;6071305;23;20014;-85
2022/11/02 00:57:11;;;;;;;4.75;1.50;;;;;;;;;;6071225;23;20074;-83
2022/11/02 00:59:37;;;;;;;2.10;1.33;;;;;;;;;;6071594;23;20019;-83
2022/11/02 01:02:03;;;;;;;5.93;1.52;;;;;;;;;;6071294;23;20094;-85
2022/11/02 01:04:29;;;;;;;2.25;1.60;;;;;;;;;;6047287;23;20111;-85
2022/11/02 01:06:55;;;;;;;3.75;1.40;;;;;;;;;;6047636;23;20055;-82
2022/11/02 01:09:21;;;;;;;4.80;1.73;;;;;;;;;;6047136;23;20026;-82
2022/11/02 01:11:47;;;;;;;3.50;1.02;;;;;;;;;;6047247;23;20026;-82
2022/11/02 01:14:13;;;;;;;3.25;1.25;;;;;;;;;;6047058;23;20019;-82
2022/11/02 01:16:40;;;;;;;3.85;1.15;;;;;;;;;;6071171;23;20030;-82
2022/11/02 01:19:06;;;;;;;5.20;1.65;;;;;;;;;;6071253;23;20026;-82
2022/11/02 01:21:32;;;;;;;3.63;1.45;;;;;;;;;;6047091;23;20033;-82
2022/11/02 01:23:58;;;;;;;2.42;1.10;;;;;;;;;;6071068;23;20022;-84
2022/11/02 01:26:24;;;;;;;5.78;1.95;;;;;;;;;;6047272;23;20101;-84
2022/11/02 01:28:52;;;;;;;3.75;1.17;;;11.80;99.90;;;;;;6046946;23;20022;-82
2022/11/02 01:31:18;;;;;;;6.28;1.20;;;;;;;;;;6047193;23;20456;-85
2022/11/02 01:33:44;;;;;;;2.92;1.00;;;;;;;;;;6071169;23;20465;-82
2022/11/02 01:36:12;;;;;;;2.47;1.10;;;11.60;99.90;;;;;;6070956;23;20015;-83
2022/11/02 01:38:38;;;;;;;4.07;1.58;;;;;;;;;;6047165;23;20026;-81
2022/11/02 01:41:04;;;;;;;2.55;1.20;;;;;;;;;;6070872;23;20014;-82
2022/11/02 01:43:32;;;;;;;4.53;1.25;;;11.70;99.90;;;;;;6070344;23;20019;-82
2022/11/02 01:46:14;;;;;;;2.17;1.20;;;;;;;;;;6070906;23;20054;-82
2022/11/02 01:48:40;;;;;;;2.25;1.10;;;;;;;;;;6047187;23;20023;-81
2022/11/02 01:51:09;;;;;;;1.58;1.27;;;;;;;;;;6046503;23;20025;-81
2022/11/02 01:53:37;;;;;;;4.22;1.58;;;;;;;;;;6070623;23;20111;-82
2022/11/02 01:56:04;;;;;;;1.38;1.00;;;11.80;99.90;;;;;;6046797;23;20018;-81
2022/11/02 01:58:33;;;;;;;5.20;1.20;;;;;;;;;;6070500;23;20022;-81
2022/11/02 02:00:59;;;;;;;2.10;1.90;;;;;;;;;;6046923;23;20093;-81
2022/11/02 02:03:26;;;;;;;2.88;1.17;;;;;;;;;;6070873;23;20018;-81
2022/11/02 02:06:12;;;;;;;0.90;0.90;;;11.40;99.90;;;;;;6047114;23;20025;-81
2022/11/02 02:08:42;;;;;;;1.45;1.10;;;11.50;99.90;;;;;;6046951;23;20064;-82
2022/11/02 02:11:23;;;;;;;5.20;1.20;;;;;;;;;;6070696;23;20026;-82
2022/11/02 02:13:50;;;;;;;1.52;1.00;;;;;;;;;;6070412;23;20029;-83
2022/11/02 02:16:20;;;;;;;2.08;0.60;;;;;;;;;;6046937;23;20018;-84
2022/11/02 02:18:57;;;;;;;7.88;3.08;;;;;;;;;;6046693;23;20018;-85
2022/11/02 02:21:48;;;;;;;1.20;0.82;;;11.30;99.90;;;;;;6046734;23;20022;-84
2022/11/02 02:24:26;;;;;;;1.92;0.90;;;;;;;;;;6046536;23;20554;-83
2022/11/02 02:27:07;;;;;;;2.13;0.95;;;;;;;;;;6070710;23;20014;-83
2022/11/02 02:30:00;;;;;;;1.88;1.08;;;11.30;99.90;;;;;;6046275;23;20486;-84
2022/11/02 02:32:42;;;;;;;4.47;1.15;;;;;;;;;;6046582;23;20479;-84
2022/11/02 02:35:53;;;;;;;5.55;2.13;;;11.10;99.90;;;;;;6070399;23;20122;-86
2022/11/02 02:38:33;;;;;;;4.53;1.48;;;11.10;99.90;;;;;;6040826;23;20023;-85
2022/11/02 02:41:18;;;;;;;1.80;1.48;;;11.10;99.90;;;;;;6070379;23;20062;-84
2022/11/02 02:43:53;;;;;;;4.20;1.92;;;;;;;;;;6046130;23;20471;-84
2022/11/02 02:46:21;;;;;;;2.38;1.90;;;;;;;;;;6046309;23;20018;-84
2022/11/02 02:48:48;;;;;;;4.35;1.55;;;;;;;;;;6046271;23;20057;-83
2022/11/02 02:51:16;;;;;;;4.53;1.88;;;;;;;;;;6046520;23;20018;-83
2022/11/02 02:53:44;;;;;;;7.05;1.80;;;;;;;;;;6070197;23;20022;-84
2022/11/02 02:56:11;;;;;;;4.95;1.83;;;;;;;;;;6070117;23;20037;-84
2022/11/02 02:58:43;;;;;;;8.63;2.38;;;;;;;;;;6070058;23;20041;-82
2022/11/02 03:01:11;;;;;;;5.00;2.22;;;;;;;;;;6070123;23;20018;-83
2022/11/02 03:03:38;;;;;;;5.95;1.83;;;;;;;;;;6070070;23;20033;-85
2022/11/02 03:06:12;;;;;;;8.70;1.73;;;;;;;;;;6070394;23;20021;-85
2022/11/02 03:08:39;;;;;;;4.32;1.80;;;11.10;99.90;;;;;;6070174;23;20522;-84
2022/11/02 03:11:18;;;;;;;3.97;1.35;;;11.10;99.90;;;;;;6070107;23;20014;-85
2022/11/02 03:14:06;;;;;;;2.13;1.60;;;11.00;99.90;;;;;;6046175;23;20401;-85
2022/11/02 03:16:41;;;;;;;5.13;1.70;;;;;;;;;;6045868;23;20483;-86
2022/11/02 03:19:19;;;;;;;1.42;1.23;;;;;;;;;;6070086;23;20014;-86
2022/11/02 03:21:48;;;;;;;3.53;1.00;;;;;;;;;;6069817;23;20021;-85
2022/11/02 03:24:21;;;;;;;5.18;1.00;;;11.30;99.90;;;;;;6045949;23;20029;-86
2022/11/02 03:26:47;;;;;;;5.57;1.50;;;;;;;;;;6046060;23;20027;-83
2022/11/02 03:29:17;;;;;;;3.35;1.10;;;;;;;;;;6069863;23;20033;-84
2022/11/02 03:31:53;;;;;;;7.93;1.92;;;;;;;;;;6045817;23;20069;-85
2022/11/02 03:34:19;;;;;;;2.17;1.10;;;;;;;;;;6046051;23;20041;-84
2022/11/02 03:36:48;;;;;;;4.95;1.10;;;;;;;;;;6046047;23;20452;-83
2022/11/02 03:39:16;;;;;;;4.85;1.25;;;;;;;;;;6045914;23;20023;-84
2022/11/02 03:41:43;;;;;;;4.63;1.10;;;;;;;;;;6073199;23;20069;-86
2022/11/02 03:44:19;;;;;;;10.27;1.88;;;;;;;;;;6098582;23;20026;-85
2022/11/02 03:46:49;;;;;;;5.80;1.60;;;11.00;99.90;;;;;;6098496;23;20018;-86
2022/11/02 03:49:17;;;;;;;4.60;1.88;;;;;;;;;;6074544;23;20471;-84
2022/11/02 03:51:44;;;;;;;1.48;1.27;;;;;;;;;;6098558;23;20345;-85
2022/11/02 03:54:20;;;;;;;3.97;1.10;;;10.80;99.90;;;;;;6098532;23;20021;-84
2022/11/02 03:56:49;;;;;;;4.53;1.40;;;;;;;;;;6098614;23;20014;-83
2022/11/02 03:59:15;;;;;;;9.70;1.80;;;;;;;;;;6098334;23;20017;-84
2022/11/02 04:01:42;;;;;;;4.80;1.52;;;;;;;;;;6098131;23;20014;-84
2022/11/02 04:04:08;;;;;;;2.78;1.38;;;;;;;;;;6098266;23;20018;-84
2022/11/02 04:06:34;;;;;;;7.10;1.67;;;;;;;;;;6098462;23;20025;-84
2022/11/02 04:09:01;;;;;;;3.97;1.63;;;;;;;;;;6098398;23;20467;-84
2022/11/02 04:19:57;;;;;;;5.47;1.80;;;;;;;;;;5985189;23;20028;-83
2022/11/02 04:25:14;;;;;;;12.10;2.33;;;10.90;99.90;;;;;;5985152;23;20020;-83
2022/11/02 04:27:40;;;;;;;5.32;2.45;;;;;;;;;;5985291;23;20020;-84
2022/11/02 04:30:07;;;;;;;6.78;1.60;;;;;;;;;;5985485;23;20018;-84
2022/11/02 04:35:28;;;;;;;7.72;2.15;;;;;;;;;;5984969;23;20074;-83
2022/11/02 04:40:38;;;;;;;11.95;1.90;;;11.00;99.90;;;;;;5984733;23;20480;-82
2022/11/02 04:43:04;;;;;;;4.05;1.60;;;;;;;;;;5984925;23;20019;-84
2022/11/02 04:45:30;;;;;;;4.47;1.50;;;;;;;;;;5961833;23;20023;-84
2022/11/02 04:48:00;;;;;;;5.68;1.75;;;10.90;99.90;;;;;;5984884;23;20124;-86
2022/11/02 04:50:26;;;;;;;7.97;2.65;;;;;;;;;;5985175;23;20061;-88
2022/11/02 04:52:57;;;;;;;4.57;1.73;;;10.90;99.90;;;;;;5993002;23;20016;-86
2022/11/02 04:55:23;;;;;;;5.50;1.63;;;;;;;;;;6076944;23;20049;-86
2022/11/02 04:57:49;;;;;;;5.78;1.70;;;;;;;;;;6100255;23;20014;-83
2022/11/02 05:00:15;;;;;;;4.05;2.03;;;;;;;;;;6100173;23;20045;-86
2022/11/02 05:02:41;;;;;;;5.80;1.90;;;;;;;;;;6099830;23;20348;-86
2022/11/02 05:05:07;;;;;;;8.10;2.03;;;;;;;;;;6100532;23;20459;-86
2022/11/02 05:07:34;;;;;;;5.00;1.50;;;;;;;;;;6100358;23;20092;-86
2022/11/02 05:10:00;;;;;;;7.22;2.08;;;;;;;;;;6100231;23;20097;-86
2022/11/02 05:12:26;;;;;;;7.03;2.10;;;;;;;;;;6100444;23;20057;-85
2022/11/02 05:14:52;;;;;;;9.15;1.95;;;;;;;;;;6100046;23;20018;-86
2022/11/02 05:17:18;;;;;;;8.40;2.05;;;;;;;;;;6100192;23;20026;-86
2022/11/02 05:19:44;;;;;;;7.50;2.15;;;;;;;;;;6100058;23;20020;-86
2022/11/02 05:22:10;;;;;;;12.43;3.40;;;;;;;;;;6099920;23;20410;-83
2022/11/02 05:24:36;;;;;;;8.45;2.72;;;;;;;;;;6099577;23;20359;-86
2022/11/02 05:27:02;;;;;;;3.58;1.98;;;;;;;;;;6099728;23;20022;-84
2022/11/02 05:29:28;;;;;;;12.30;2.55;;;;;;;;;;6100002;23;20073;-82
2022/11/02 05:31:54;;;;;;;5.47;1.70;;;;;;;;;;6099745;23;20010;-85
2022/11/02 05:34:20;;;;;;;3.42;1.88;;;;;;;;;;6099799;23;20040;-85
2022/11/02 05:36:47;;;;;;;4.53;3.08;;;;;;;;;;6099796;23;20009;-85
2022/11/02 05:39:13;;;;;;;4.15;2.17;;;;;;;;;;6099784;23;20018;-84
2022/11/02 05:41:39;;;;;;;4.05;1.50;;;;;;;;;;6100068;23;20021;-85
2022/11/02 05:44:05;;;;;;;4.93;2.00;;;;;;;;;;6099920;23;20025;-86
2022/11/02 05:46:32;;;;;;;5.32;1.75;;;;;;;;;;6099775;23;20032;-84
2022/11/02 05:48:58;;;;;;;5.97;2.38;;;;;;;;;;6099553;23;20104;-82
2022/11/02 05:51:24;;;;;;;6.85;2.20;;;;;;;;;;6099660;23;20355;-83
2022/11/02 05:53:50;;;;;;;5.18;2.50;;;;;;;;;;6099736;23;20080;-83
2022/11/02 05:56:16;;;;;;;7.40;2.47;;;;;;;;;;6099642;23;20014;-83
2022/11/02 05:58:42;;;;;;;8.38;2.20;;;;;;;;;;6099708;23;20014;-82
2022/11/02 06:01:09;;;;;;;7.07;2.80;;;10.90;99.90;;;;;;6099684;23;20067;-83
2022/11/02 06:03:35;;;;;;;7.05;1.80;;;;;;;;;;6098950;23;20021;-84
2022/11/02 06:06:03;;;;;;;7.70;2.25;;;;;;;;;;6099497;23;20025;-83
2022/11/02 06:08:33;;;;;;;6.05;2.13;;;;;;;;;;6099488;23;20024;-83
2022/11/02 06:11:03;;;;;;;5.22;2.08;;;;;;;;;;6099485;23;20018;-83
2022/11/02 06:13:29;;;;;;;9.52;2.70;;;;;;;;;;6099541;23;20025;-83
2022/11/02 06:15:58;;;;;;;3.28;1.77;;;;;;;;;;6099524;23;20041;-82
2022/11/02 06:18:24;;;;;;;7.55;2.00;;;;;;;;;;6099451;23;20017;-83
2022/11/02 06:20:50;;;;;;;13.65;2.80;;;;;;;;;;6100153;23;20057;-84
2022/11/02 06:23:17;;;;;;;5.30;2.17;;;;;;;;;;6099947;23;20037;-82
2022/11/02 06:25:43;;;;;;;10.10;2.47;;;;;;;;;;6100098;23;20022;-83
2022/11/02 06:28:09;;;;;;;9.20;3.03;;;;;;;;;;6100121;23;20014;-85
2022/11/02 06:30:35;;;;;;;6.53;1.98;;;;;;;;;;6099973;23;20097;-86
2022/11/02 06:33:01;;;;;;;9.80;2.88;;;;;;;;;;6099359;23;20018;-81
2022/11/02 06:35:27;;;;;;;10.15;2.30;;;;;;;;;;6099363;23;20028;-81
2022/11/02 06:37:53;;;;;;;5.35;2.20;;;;;;;;;;6099211;23;20053;-81
2022/11/02 06:40:19;;;;;;;8.30;2.22;;;;;;;;;;6098965;23;20054;-81
2022/11/02 06:42:47;;;;;;;9.65;2.50;;;;;;;;;;6098848;23;20022;-82
2022/11/02 06:45:13;;;;;;;9.77;3.03;;;;;;;;;;6099199;23;20106;-82
2022/11/02 06:47:40;;;;;;;3.78;1.50;;;;;;;;;;6099102;23;20045;-82
2022/11/02 06:50:06;;;;;;;6.57;1.80;;;;;;;;;;6098983;23;20077;-82
2022/11/02 06:52:32;;;;;;;7.85;2.15;;;;;;;;;;6099129;23;20600;-82
2022/11/02 06:54:58;;;;;;;9.18;2.25;;;;;;;;;;6099011;23;20029;-82
2022/11/02 06:57:24;;;;;;;4.85;1.45;;;;;;;;;;6099180;23;20110;-82
2022/11/02 06:59:50;;;;;;;4.15;1.88;;;;;;;;;;6099318;23;20021;-82
2022/11/02 07:02:16;;;;;;;10.10;2.65;;;;;;;;;;6099197;23;20025;-82
2022/11/02 07:04:42;;;;;;;8.52;2.42;;;;;;;;;;6098760;23;20085;-82
2022/11/02 07:07:08;;;;;;;2.85;1.55;;;;;;;;;;6099030;23;20391;-82
2022/11/02 07:09:34;;;;;;;5.07;1.75;;;;;;;;;;6098846;23;20022;-82
2022/11/02 07:12:00;;;;;;;7.07;2.47;;;;;;;;;;6099222;23;20053;-82
2022/11/02 07:14:26;;;;;;;5.38;2.75;;;;;;;;;;6098950;23;20097;-82
2022/11/02 07:16:52;;;;;;;3.90;1.60;;;;;;;;;;6099339;23;20502;-82
2022/11/02 07:19:18;;;;;;;8.85;2.00;;;;;;;;;;6098701;23;20030;-82
2022/11/02 07:21:44;;;;;;;4.72;1.80;;;;;;;;;;6098806;23;20078;-82
2022/11/02 07:24:10;;;;;;;5.70;1.70;;;;;;;;;;6098815;23;20018;-82
2022/11/02 07:26:36;;;;;;;5.32;1.38;;;;;;;;;;6098644;23;20013;-82
2022/11/02 07:29:02;;;;;;;1.88;1.38;;;;;;;;;;6092334;23;20023;-81
2022/11/02 07:31:31;;;;;;;6.63;1.75;;;;;;;;;;6097619;23;20352;-82
2022/11/02 07:33:57;;;;;;;5.85;1.50;;;;;;;;;;6098683;23;20013;-82
2022/11/02 07:36:23;;;;;;;10.05;1.60;;;;;;;;;;6099027;23;20022;-82
2022/11/02 07:38:49;;;;;;;10.13;1.90;;;;;;;;;;6098703;23;20018;-82
2022/11/02 07:41:15;;;;;;;5.80;1.67;;;;;;;;;;6098206;23;20456;-82
2022/11/02 07:43:41;;;;;;;5.78;1.77;;;;;;;;;;6098302;23;20028;-82
2022/11/02 07:46:07;;;;;;;3.22;1.20;;;;;;;;;;6098569;23;20018;-82
2022/11/02 07:48:34;;;;;;;3.95;1.95;;;;;;;;;;6098157;23;20451;-83
2022/11/02 07:51:00;;;;;;;5.40;1.70;;;;;;;;;;6097819;23;20125;-82
2022/11/02 07:53:26;;;;;;;3.60;1.50;;;;;;;;;;6098691;23;20029;-83
2022/11/02 07:55:52;;;;;;;6.28;1.50;;;;;;;;;;6098518;23;20014;-81
2022/11/02 07:58:18;;;;;;;8.25;1.58;;;;;;;;;;6098602;23;20333;-82
2022/11/02 08:00:44;;;;;;;6.57;1.60;;;;;;;;;;6097587;23;20450;-82
2022/11/02 08:03:11;;;;;;;2.70;1.75;;;;;;;;;;6098203;23;20014;-82
2022/11/02 08:05:39;;;;;;;6.20;2.17;;;11.10;99.90;;;;;;6098657;23;20352;-82
2022/11/02 08:08:06;;;;;;;4.03;1.25;;;;;;;;;;6098803;23;20010;-81
2022/11/02 08:10:34;;;;;;;8.80;1.92;;;11.20;99.90;;;;;;6098517;23;20084;-82
2022/11/02 08:13:00;;;;;;;6.15;2.10;;;;;;;;;;6098587;23;20018;-82
2022/11/02 08:15:26;;;;;;;6.00;2.17;;;;;;;;;;6098614;23;20026;-81
2022/11/02 08:18:01;;;;;;;6.30;1.75;;;;;;;;;;6098183;23;20018;-82
2022/11/02 08:20:28;;;;;;;5.82;1.80;;;;;;;;;;6098195;23;20022;-82
2022/11/02 08:22:54;;;;;;;7.63;2.08;;;;;;;;;;6097969;23;20100;-83
2022/11/02 08:25:20;;;;;;;10.57;2.50;;;;;;;;;;6098375;23;20040;-83
2022/11/02 08:27:46;;;;;;;4.53;1.35;;;;;;;;;;6098439;23;20399;-83
2022/11/02 08:30:12;;;;;;;5.57;2.47;;;;;;;;;;6097979;23;20022;-85
2022/11/02 08:32:38;;;;;;;8.48;1.83;;;;;;;;;;6097630;23;20022;-84
2022/11/02 08:35:04;;;;;;;3.30;1.45;;;;;;;;;;6098355;23;20021;-84
2022/11/02 08:37:30;;;;;;;6.65;2.15;;;;;;;;;;6098225;23;20092;-85
2022/11/02 08:39:56;;;;;;;3.83;2.03;;;;;;;;;;6098617;23;20014;-83
2022/11/02 08:42:22;;;;;;;6.75;1.67;;;;;;;;;;6097882;23;20018;-84
2022/11/02 08:44:48;;;;;;;11.50;2.47;;;;;;;;;;6097880;23;20025;-83
2022/11/02 08:47:16;;;;;;;5.75;1.63;;;;;;;;;;6098426;23;20049;-83
2022/11/02 08:49:42;;;;;;;9.60;2.40;;;;;;;;;;6098600;23;20045;-83
2022/11/02 08:52:08;;;;;;;8.45;1.90;;;;;;;;;;6098121;23;20467;-88
2022/11/02 08:54:34;;;;;;;4.05;1.45;;;;;;;;;;6098130;23;20347;-85
2022/11/02 08:57:00;;;;;;;15.60;2.67;;;;;;;;;;6098294;23;20053;-84
2022/11/02 08:59:26;;;;;;;9.68;2.45;;;;;;;;;;6098354;23;20050;-85
2022/11/02 09:01:52;;;;;;;12.30;1.70;;;;;;;;;;6099916;23;20018;-85
2022/11/02 09:04:18;;;;;;;6.50;1.92;;;;;;;;;;6099895;23;20077;-85
2022/11/02 09:06:44;;;;;;;14.75;2.75;;;;;;;;;;6099706;23;20097;-85
2022/11/02 09:09:10;;;;;;;3.75;1.80;;;;;;;;;;6099727;23;20621;-84
2022/11/02 09:11:36;;;;;;;12.10;2.38;;;;;;;;;;6100192;23;20018;-84
2022/11/02 09:14:02;;;;;;;5.15;1.88;;;;;;;;;;6099546;23;20014;-86
2022/11/02 09:16:28;;;;;;;4.03;2.58;;;;;;;;;;6100076;23;20018;-84
2022/11/02 09:18:55;;;;;;;8.65;2.97;;;;;;;;;;6099881;23;20018;-85
2022/11/02 09:21:21;;;;;;;12.02;2.40;;;;;;;;;;6099600;23;20092;-86
2022/11/02 09:23:48;;;;;;;5.38;1.83;;;;;;;;;;6099509;23;20018;-84
2022/11/02 09:26:14;;;;;;;16.85;2.28;;;;;;;;;;6099931;23;20515;-84
2022/11/02 09:28:40;;;;;;;12.63;3.28;;;;;;;;;;6100030;23;20152;-83
2022/11/02 09:31:06;;;;;;;7.93;2.30;;;;;;;;;;6100380;23;20018;-84
2022/11/02 09:33:34;;;;;;;10.68;2.45;;;;;;;;;;6100117;23;20022;-84
2022/11/02 09:36:03;;;;;;;10.45;1.48;;;12.40;99.90;;;;;;6099659;23;20080;-82
2022/11/02 09:38:29;;;;;;;6.15;1.80;;;;;;;;;;6076391;23;20014;-82
2022/11/02 09:40:59;;;;;;;4.43;2.03;;;;;;;;;;6076069;23;20097;-83
2022/11/02 09:43:44;;;;;;;9.20;2.60;;;;;;;;;;6099831;23;20077;-83
2022/11/02 09:46:13;;;;;;;7.28;1.70;;;;;;;;;;6099275;23;20175;-83
2022/11/02 09:48:41;;;;;;;10.32;2.90;;;;;;;;;;6099746;23;20071;-83
2022/11/02 09:51:09;;;;;;;9.25;2.83;;;;;;;;;;6099750;23;20025;-82
2022/11/02 09:53:40;;;;;;;8.30;2.50;;;;;;;;;;6099456;23;20050;-82
2022/11/02 09:56:07;;;;;;;6.97;2.40;;;;;;;;;;6099407;23;20053;-83
2022/11/02 09:58:36;;;;;;;9.00;2.50;;;;;;;;;;6099312;23;20066;-82
2022/11/02 10:01:09;;;;;;;9.05;2.50;;;;;;;;;;6099857;23;20435;-82
2022/11/02 10:03:38;;;;;;;12.73;2.15;;;;;;;;;;6099522;23;20447;-82
2022/11/02 10:06:08;;;;;;;8.27;1.90;;;12.60;99.90;;;;;;6099286;23;20025;-83
2022/11/02 10:08:37;;;;;;;12.98;2.10;;;;;;;;;;6099220;23;20029;-82
2022/11/02 10:11:27;;;;;;;11.00;2.58;;;;;;;;;;6098868;23;20042;-82
2022/11/02 10:13:56;;;;;;;10.45;2.03;;;;;;;;;;5984216;23;20020;-82
2022/11/02 10:16:38;;;;;;;8.55;2.13;;;12.70;99.90;;;;;;5983590;23;20020;-83
2022/11/02 10:19:09;;;;;;;7.10;2.47;;;;;;;;;;5960874;23;20019;-82
2022/11/02 10:21:37;;;;;;;10.13;2.47;;;12.80;99.90;;;;;;5961048;23;20019;-82
2022/11/02 10:24:33;;;;;;;13.65;2.33;;;12.60;99.90;;;;;;5983629;23;20020;-81
2022/11/02 10:27:00;;;;;;;6.43;1.90;;;;;;;;;;5960361;23;20113;-82
2022/11/02 10:29:46;;;;;;;10.48;2.40;;;12.70;99.90;;;;;;5960790;23;20027;-82
2022/11/02 10:32:13;;;;;;;7.38;2.33;;;12.90;99.90;;;;;;5983699;23;20361;-82
2022/11/02 10:34:40;;;;;;;6.47;1.98;;;;;;;;;;5983920;23;20024;-82
2022/11/02 10:37:30;;;;;;;5.95;1.73;;;12.70;99.90;;;;;;5983343;23;20071;-82
2022/11/02 10:40:18;;;;;;;9.10;2.70;;;;;;;;;;5984100;23;20019;-82
2022/11/02 10:43:05;;;;;;;3.58;2.00;;;;;;;;;;5983901;23;20020;-83
2022/11/02 10:45:31;;;;;;;11.95;2.15;;;;;;;;;;5983736;23;20027;-82
2022/11/02 10:48:30;;;;;;;7.43;2.00;;;12.50;99.90;;;;;;5960048;23;20027;-82
2022/11/02 10:51:11;;;;;;;7.28;2.08;;;;;;;;;;6044762;23;20026;-82
2022/11/02 10:53:41;;;;;;;8.82;2.20;;;;;;;;;;6098992;23;20100;-82
2022/11/02 10:56:10;;;;;;;4.82;2.15;;;;;;;;;;6098685;23;20085;-82
2022/11/02 10:58:38;;;;;;;10.02;2.10;;;;;;;;;;6098955;23;20018;-82
2022/11/02 11:01:05;;;;;;;5.95;1.95;;;;;;;;;;6099154;23;20459;-83
2022/11/02 11:03:32;;;;;;;3.53;2.00;;;;;;;;;;6099209;23;20461;-83
2022/11/02 11:06:04;;;;;;;5.55;1.83;;;;;;;;;;6098574;23;20026;-84
2022/11/02 11:08:35;;;;;;;7.10;2.05;;;;;;;;;;6098452;23;20448;-84
2022/11/02 11:11:15;;;;;;;4.43;2.00;;;;;;;;;;6099381;23;20025;-84
2022/11/02 11:13:46;;;;;;;3.75;1.67;;;;;;;;;;6124061;23;20032;-84
2022/11/02 11:16:12;;;;;;;7.10;1.67;;;;;;;;;;6099076;23;20348;-86
2022/11/02 11:18:39;;;;;;;3.17;1.42;;;;;;;;;;6098868;23;20388;-85
2022/11/02 11:21:06;;;;;;;5.70;1.98;;;13.00;99.90;;;;;;6099087;23;20053;-85
2022/11/02 11:23:32;;;;;;;9.20;1.85;;;;;;;;;;6099538;23;20057;-86
2022/11/02 11:26:00;;;;;;;10.90;2.03;;;;;;;;;;6124949;23;20518;-85
2022/11/02 11:28:26;;;;;;;6.15;2.22;;;;;;;;;;6099564;23;20096;-85
2022/11/02 11:31:03;;;;;;;10.13;2.13;;;;;;;;;;6099329;23;20483;-85
2022/11/02 11:33:31;;;;;;;8.45;1.92;;;;;;;;;;6125161;23;20022;-83
2022/11/02 11:35:57;;;;;;;11.30;1.90;;;;;;;;;;6125921;23;20309;-86
2022/11/02 11:38:26;;;;;;;13.75;2.10;;;;;;;;;;6125009;23;20018;-85
2022/11/02 11:40:54;;;;;;;3.30;1.50;;;;;;;;;;6124913;23;20094;-85
2022/11/02 11:43:21;;;;;;;5.20;1.30;;;;;;;;;;6093685;23;20025;-84
2022/11/02 11:45:55;;;;;;;8.85;2.25;;;;;;;;;;6070611;23;20034;-86
2022/11/02 11:48:41;;;;;;;10.60;1.85;;;;;;;;;;6046525;23;20018;-86
2022/11/02 11:51:31;;;;;;;5.50;1.48;;;13.50;99.90;;;;;;6051757;23;20022;-83
2022/11/02 11:54:04;;;;;;;10.35;2.00;;;;;;;;;;6046397;23;20106;-83
2022/11/02 11:56:30;;;;;;;;;;;13.60;99.90;;;;;;6047240;23;20022;-84
2022/11/02 11:58:57;;;;;;;6.32;2.33;;;;;;;;;;6095827;23;19917;-85
2022/11/02 12:01:23;;;;;;;7.25;2.17;;;;;;;;;;6046826;23;20088;-84
2022/11/02 12:03:57;;;;;;;9.38;1.85;;;;;;;;;;6070082;23;20077;-84
2022/11/02 12:06:32;;;;;;;2.55;1.10;;;;;;;;;;6046235;23;20069;-82
2022/11/02 12:09:23;;;;;;;7.03;1.58;;;13.60;99.90;;;;;;6044931;23;20018;-82
2022/11/02 12:12:02;;;;;;;3.33;1.45;;;;;;;;;;6070081;23;20073;-81
2022/11/02 12:14:28;;;;;;;7.45;2.08;;;;;;;;;;6095608;23;20150;-82
2022/11/02 12:16:54;;;;;;;5.82;1.58;;;;;;;;;;6046288;23;20360;-81
2022/11/02 12:19:23;;;;;;;8.63;1.50;;;;;;;;;;6045833;23;20019;-82
2022/11/02 12:21:56;;;;;;;5.18;1.92;;;;;;;;;;6095617;23;20344;-82
2022/11/02 12:24:40;;;;;;;6.47;2.08;;;;;;;;;;6095264;23;20022;-81
2022/11/02 12:27:47;;;;;;;4.30;1.80;;;13.60;99.90;;;;;;6069790;23;20075;-81
2022/11/02 12:30:16;;;;;;;17.67;2.42;;;;;;;;;;6094797;23;20019;-81
2022/11/02 12:32:45;;;;;;;5.25;1.90;;;;;;;;;;6069816;23;20014;-80
2022/11/02 12:35:17;;;;;;;3.63;1.45;;;;;;;;;;6096492;23;20042;-81
2022/11/02 12:37:44;;;;;;;9.93;1.80;;;;;;;;;;6072002;23;20053;-81
2022/11/02 12:40:10;;;;;;;5.80;1.85;;;;;;;;;;6070638;23;20527;-82
2022/11/02 12:42:44;;;;;;;4.13;2.17;;;13.80;99.90;;;;;;6071660;23;20062;-81
2022/11/02 12:45:42;;;;;;;9.05;1.75;;;13.60;99.90;;;;;;6077063;23;20018;-81
2022/11/02 12:48:16;;;;;;;7.75;2.33;;;13.60;99.90;;;;;;6071481;23;20026;-81
2022/11/02 12:50:48;;;;;;;9.68;1.63;;;;;;;;;;6070982;23;20015;-81
2022/11/02 12:53:57;;;;;;;9.00;2.88;;;13.50;99.90;;;;;;6047536;23;20519;-82
2022/11/02 12:56:29;;;;;;;6.70;2.38;;;;;;;;;;5933991;24;20020;-82
2022/11/02 12:58:55;;;;;;;8.18;1.85;;;;;;;;;;5933885;24;20049;-82
2022/11/02 13:01:29;;;;;;;3.60;1.88;;;13.70;99.90;;;;;;5956339;24;20043;-81
2022/11/02 13:04:18;;;;;;;8.88;2.40;;;13.70;99.90;;;;;;5956998;24;20024;-81
2022/11/02 13:06:46;;;;;;;7.70;1.98;;;;;;;;;;5956884;24;20461;-81
2022/11/02 13:09:16;;;;;;;7.38;2.15;;;;;;;;;;5956863;24;20350;-82
2022/11/02 13:11:47;;;;;;;8.45;2.40;;;13.70;99.90;;;;;;5956187;24;20502;-81
2022/11/02 13:14:18;;;;;;;10.63;2.05;;;13.70;99.90;;;;;;5956655;24;20478;-81
2022/11/02 13:16:53;;;;;;;10.27;1.88;;;;;;;;;;5933890;24;20020;-84
2022/11/02 13:19:28;;;;;;;9.57;1.88;;;13.80;99.90;;;;;;5933772;24;20020;-83
2022/11/02 13:21:56;;;;;;;8.18;1.65;;;13.90;99.90;;;;;;5933120;24;20020;-83
2022/11/02 13:24:28;;;;;;;5.88;1.67;;;14.10;99.90;;;;;;5956655;24;20095;-83
2022/11/02 13:26:54;;;;;;;13.02;2.10;;;;;;;;;;6007412;23;20022;-83
2022/11/02 13:29:29;;;;;;;8.93;1.88;;;14.00;99.90;;;;;;6046804;23;20057;-83
2022/11/02 13:32:06;;;;;;;10.27;2.47;;;;;;;;;;6070604;23;20026;-84
2022/11/02 13:34:37;;;;;;;11.63;2.00;;;;;;;;;;6070996;23;20033;-84
2022/11/02 13:37:04;;;;;;;2.90;1.05;;;;;;;;;;6046907;23;20021;-82
2022/11/02 13:39:40;;;;;;;11.15;2.88;;;14.00;99.90;;;;;;6047007;23;20817;-84
2022/11/02 13:42:12;;;;;;;5.70;1.75;;;;;;;;;;6070306;23;20097;-81
2022/11/02 13:44:50;;;;;;;6.80;2.55;;;;;;;;;;6046716;23;20109;-82
2022/11/02 13:47:27;;;;;;;14.73;2.92;;;13.80;99.90;;;;;;6046471;23;20090;-83
2022/11/02 13:49:56;;;;;;;3.15;1.90;;;14.00;99.90;;;;;;6071117;23;20098;-84
2022/11/02 13:52:38;;;;;;;5.82;1.65;;;13.70;99.90;;;;;;6070421;23;20058;-84
2022/11/02 13:55:05;;;;;;;11.60;2.15;;;;;;;;;;6070774;23;20049;-84
2022/11/02 13:57:31;;;;;;;14.02;2.03;;;;;;;;;;6070423;23;20053;-84
2022/11/02 13:59:57;;;;;;;10.35;2.35;;;;;;;;;;6047220;23;20499;-82
2022/11/02 14:02:24;;;;;;;9.25;1.80;;;13.90;99.90;;;;;;6047132;23;20053;-82
2022/11/02 14:04:50;;;;;;;7.32;2.17;;;;;;;;;;6070640;23;20030;-82
2022/11/02 14:07:31;;;;;;;10.93;2.10;;;14.10;99.90;;;;;;6046797;23;20325;-82
2022/11/02 14:10:06;;;;;;;7.85;2.08;;;13.90;99.90;;;;;;6071003;23;20014;-82
2022/11/02 14:12:45;;;;;;;9.95;1.90;;;13.90;99.90;;;;;;6070319;23;20015;-81
2022/11/02 14:15:14;;;;;;;6.05;1.90;;;;;;;;;;6070593;23;20057;-81
2022/11/02 14:17:52;;;;;;;8.25;1.75;;;;;;;;;;6070500;23;20022;-81
2022/11/02 14:20:36;;;;;;;10.35;2.45;;;13.80;99.90;;;;;;6070544;23;20033;-83
2022/11/02 14:23:08;;;;;;;5.05;2.38;;;13.90;99.90;;;;;;6070409;23;20025;-84
2022/11/02 14:25:47;;;;;;;7.20;2.50;;;;;;;;;;6070595;23;20078;-84
2022/11/02 14:28:40;;;;;;;11.15;2.05;;;13.90;99.90;;;;;;6046708;23;20023;-83
2022/11/02 14:31:06;;;;;;;9.90;2.45;;;;;;;;;;6070475;23;20022;-84
2022/11/02 14:33:54;;;;;;;14.25;2.17;;;14.10;99.90;;;;;;6070469;23;20061;-84
2022/11/02 14:36:26;;;;;;;4.63;1.90;;;;;;;;;;6046423;23;20019;-83
2022/11/02 14:39:10;;;;;;;7.18;2.03;;;14.00;99.90;;;;;;6046662;23;20019;-83
2022/11/02 14:41:50;;;;;;;12.32;3.80;;;13.80;99.90;;;;;;6046311;23;20054;-83
2022/11/02 14:44:26;;;;;;;4.55;1.77;;;13.80;99.90;;;;;;6046063;23;20026;-84
2022/11/02 14:46:58;;;;;;;8.05;1.80;;;;;;;;;;6070363;23;20026;-84
2022/11/02 14:49:35;;;;;;;9.57;2.10;;;13.70;99.90;;;;;;6046484;23;20061;-84